Main page
METAR-TAF:

METAR-TAF

Airports :

Vlissingen, Netherlands

latitude: 51-27N, longitude: 3-36E, elevation: 10 m

Current weather observation

The report was made 45 minutes ago, at 08:25 UTC
Wind 18 kt from the Southwest
Temperature 11°C
Humidity 87%
Pressure 1023 hPa
Visibility 10 km or more

METAR: EHFS 290825Z AUTO 23018KT 9999 BKN011/// OVC013/// 11/09 Q1023

Time: 11:10 (09:10 UTC)


TAF: missing

Weather observations and forecasts of more than 4000 airports (METAR and TAF reports).

The available stations are represented by yellow and red dots on the map.

Hover mouse over dot to see the name of the station.

Then click to see weather observations and forecasts.

To change the map : click on the green buttons with a black cross to zoom in, on the green button with a dash to zoom out, or on the green arrows for adjacent maps.


METAR-TAF: